createdAt,value
2023-11-25T00:00:14.565Z,99293.11
2023-11-25T00:03:02.892Z,99292.45
2023-11-25T00:05:31.297Z,99286.94
2023-11-25T00:07:59.560Z,99290.91
2023-11-25T00:10:28.063Z,99299.52
2023-11-25T00:12:56.337Z,99307.27
2023-11-25T00:15:25.190Z,99309.84
2023-11-25T00:17:54.020Z,99315.70
2023-11-25T00:20:23.760Z,99322.40
2023-11-25T00:22:53.734Z,99334.45
2023-11-25T00:25:25.464Z,99341.35
2023-11-25T00:27:54.103Z,99342.89
2023-11-25T00:30:22.724Z,99334.98
2023-11-25T00:32:56.097Z,99331.19
2023-11-25T00:35:24.864Z,99328.97
2023-11-25T00:37:53.281Z,99316.23
2023-11-25T00:40:21.961Z,99311.94
2023-11-25T00:42:50.290Z,99312.61
2023-11-25T00:45:19.470Z,99312.45
2023-11-25T00:47:49.061Z,99305.23
2023-11-25T00:50:18.054Z,99304.90
2023-11-25T00:52:47.058Z,99312.98
2023-11-25T00:55:15.694Z,99314.88
2023-11-25T00:57:45.328Z,99317.80
2023-11-25T01:00:17.837Z,99320.05
2023-11-25T01:02:46.756Z,99324.00
2023-11-25T01:05:15.592Z,99323.49
2023-11-25T01:07:46.179Z,99322.47
2023-11-25T01:10:14.815Z,99317.13
2023-11-25T01:12:43.122Z,99312.84
2023-11-25T01:15:16.525Z,99313.18
2023-11-25T01:17:44.956Z,99316.61
2023-11-25T01:20:15.104Z,99317.65
2023-11-25T01:22:43.693Z,99316.45
2023-11-25T01:25:12.856Z,99314.23
2023-11-25T01:27:41.523Z,99312.67
2023-11-25T01:30:10.323Z,99308.72
2023-11-25T01:32:38.871Z,99305.63
2023-11-25T01:35:07.633Z,99301.83
2023-11-25T01:37:36.160Z,99300.13
2023-11-25T01:40:07.281Z,99300.46
2023-11-25T01:42:35.904Z,99298.40
2023-11-25T01:45:04.497Z,99291.19
2023-11-25T01:47:32.917Z,99290.84
2023-11-25T01:50:03.787Z,99295.14
2023-11-25T01:52:33.316Z,99298.75
2023-11-25T01:55:02.606Z,99303.56
2023-11-25T01:57:34.896Z,99317.83
2023-11-25T02:00:10.803Z,99325.20
2023-11-25T02:02:44.293Z,99335.71
2023-11-25T02:05:13.844Z,99336.40
2023-11-25T02:07:42.901Z,99333.65
2023-11-25T02:10:12.769Z,99331.92
2023-11-25T02:12:41.456Z,99329.01
2023-11-25T02:15:16.045Z,99324.02
2023-11-25T02:17:46.039Z,99321.95
2023-11-25T02:20:15.861Z,99327.28
2023-11-25T02:23:01.063Z,99335.37
2023-11-25T02:25:29.897Z,99331.92
2023-11-25T02:27:58.230Z,99335.19
2023-11-25T02:30:27.934Z,99348.27
2023-11-25T02:32:56.573Z,99347.91
2023-11-25T02:35:26.477Z,99346.03
2023-11-25T02:37:55.026Z,99348.27
2023-11-25T02:40:25.395Z,99351.70
2023-11-25T02:42:54.090Z,99348.77
2023-11-25T02:45:24.976Z,99352.21
2023-11-25T02:47:54.236Z,99355.48
2023-11-25T02:50:23.084Z,99358.23
2023-11-25T02:52:51.941Z,99362.70
2023-11-25T02:55:22.344Z,99368.02
2023-11-25T02:57:53.390Z,99370.28
2023-11-25T03:00:30.748Z,99366.83
2023-11-25T03:03:10.864Z,99369.74
2023-11-25T03:05:43.493Z,99366.83
2023-11-25T03:08:13.860Z,99371.98
2023-11-25T03:10:47.996Z,99369.06
2023-11-25T03:13:18.061Z,99373.00
2023-11-25T03:15:46.705Z,99381.27
2023-11-25T03:18:15.423Z,99386.60
2023-11-25T03:20:43.840Z,99392.45
2023-11-25T03:23:12.214Z,99397.09
2023-11-25T03:25:41.002Z,99402.42
2023-11-25T03:28:12.275Z,99404.84
2023-11-25T03:30:42.269Z,99402.94
2023-11-25T03:33:11.402Z,99408.11
2023-11-25T03:35:40.238Z,99411.03
2023-11-25T03:38:10.042Z,99408.45
2023-11-25T03:40:38.831Z,99409.14
2023-11-25T03:43:08.047Z,99410.16
2023-11-25T03:45:36.988Z,99410.68
2023-11-25T03:48:07.001Z,99404.85
2023-11-25T03:50:35.603Z,99405.89
2023-11-25T03:53:04.066Z,99407.27
2023-11-25T03:55:32.543Z,99406.91
2023-11-25T03:58:02.566Z,99406.92
2023-11-25T04:00:30.943Z,99410.00
2023-11-25T04:02:59.673Z,99406.23
2023-11-25T04:05:28.446Z,99417.93
2023-11-25T04:07:56.838Z,99422.23
2023-11-25T04:10:25.332Z,99426.70
2023-11-25T04:12:54.495Z,99417.93
2023-11-25T04:15:23.473Z,99420.33
2023-11-25T04:17:52.791Z,99415.70
2023-11-25T04:20:30.968Z,99410.54
2023-11-25T04:23:07.964Z,99409.84
2023-11-25T04:25:37.467Z,99401.76
2023-11-25T04:28:08.464Z,99399.52
2023-11-25T04:30:37.448Z,99395.38
2023-11-25T04:33:08.518Z,99392.12
2023-11-25T04:35:38.230Z,99396.94
2023-11-25T04:38:06.735Z,99394.52
2023-11-25T04:40:35.055Z,99393.66
2023-11-25T04:43:03.475Z,99394.34
2023-11-25T04:45:31.838Z,99396.23
2023-11-25T04:48:00.277Z,99395.20
2023-11-25T04:50:29.202Z,99396.91
2023-11-25T04:52:58.235Z,99389.16
2023-11-25T04:55:29.503Z,99386.73
2023-11-25T04:57:58.552Z,99383.11
2023-11-25T05:00:27.188Z,99382.05
2023-11-25T05:02:56.246Z,99382.38
2023-11-25T05:05:24.873Z,99380.98
2023-11-25T05:07:53.429Z,99388.52
2023-11-25T05:10:22.104Z,99398.99
2023-11-25T05:12:52.171Z,99405.70
2023-11-25T05:15:24.127Z,99402.95
2023-11-25T05:17:55.968Z,99404.49
2023-11-25T05:20:24.281Z,99405.86
2023-11-25T05:22:52.753Z,99406.55
2023-11-25T05:25:23.531Z,99403.45
2023-11-25T05:27:52.231Z,99407.05
2023-11-25T05:30:21.519Z,99406.16
2023-11-25T05:32:50.109Z,99408.90
2023-11-25T05:35:18.688Z,99409.22
2023-11-25T05:37:47.140Z,99411.80
2023-11-25T05:40:16.897Z,99422.44
2023-11-25T05:42:54.999Z,99429.30
2023-11-25T05:45:27.786Z,99436.00
2023-11-25T05:47:56.482Z,99432.89
2023-11-25T05:50:26.487Z,99438.23
2023-11-25T05:52:55.135Z,99442.16
2023-11-25T05:55:23.753Z,99447.99
2023-11-25T05:57:52.959Z,99449.88
2023-11-25T06:00:25.016Z,99447.64
2023-11-25T06:02:54.321Z,99443.50
2023-11-25T06:05:23.911Z,99439.89
2023-11-25T06:07:52.625Z,99436.09
2023-11-25T06:10:21.343Z,99433.84
2023-11-25T06:12:50.009Z,99432.13
2023-11-25T06:15:20.232Z,99432.10
2023-11-25T06:17:49.240Z,99425.58
2023-11-25T06:20:17.907Z,99421.98
2023-11-25T06:22:46.349Z,99427.84
2023-11-25T06:25:15.410Z,99427.33
2023-11-25T06:27:46.699Z,99428.52
2023-11-25T06:30:17.580Z,99431.08
2023-11-25T06:32:47.418Z,99432.99
2023-11-25T06:35:15.846Z,99436.98
2023-11-25T06:37:44.434Z,99436.48
2023-11-25T06:40:15.891Z,99434.23
2023-11-25T06:42:44.355Z,99434.27
2023-11-25T06:45:15.453Z,99432.58
2023-11-25T06:47:45.164Z,99428.80
2023-11-25T06:50:14.758Z,99437.57
2023-11-25T06:52:43.105Z,99436.55
2023-11-25T06:55:11.448Z,99439.83
2023-11-25T06:57:42.583Z,99448.27
2023-11-25T07:00:12.695Z,99455.83
2023-11-25T07:02:42.406Z,99454.10
2023-11-25T07:05:11.093Z,99454.11
2023-11-25T07:07:39.521Z,99450.34
2023-11-25T07:10:11.575Z,99449.66
2023-11-25T07:12:40.200Z,99454.64
2023-11-25T07:15:09.464Z,99450.16
2023-11-25T07:17:38.152Z,99444.66
2023-11-25T07:20:13.586Z,99443.64
2023-11-25T07:22:43.134Z,99445.55
2023-11-25T07:25:13.830Z,99447.80
2023-11-25T07:27:46.677Z,99452.79
2023-11-25T07:30:17.226Z,99452.61
2023-11-25T07:32:46.192Z,99456.77
2023-11-25T07:35:14.843Z,99459.70
2023-11-25T07:37:43.208Z,99463.86
2023-11-25T07:40:16.189Z,99461.11
2023-11-25T07:42:50.106Z,99459.59
2023-11-25T07:45:19.059Z,99456.33
2023-11-25T07:47:47.726Z,99447.75
2023-11-25T07:50:17.644Z,99439.69
2023-11-25T07:52:47.251Z,99435.90
2023-11-25T07:55:15.897Z,99440.05
2023-11-25T07:57:44.583Z,99437.83
2023-11-25T08:00:16.953Z,99433.04
2023-11-25T08:02:48.683Z,99430.46
2023-11-25T08:05:24.123Z,99435.11
2023-11-25T08:07:54.609Z,99435.28
2023-11-25T08:10:26.078Z,99443.20
2023-11-25T08:12:55.140Z,99447.85
2023-11-25T08:15:24.407Z,99454.39
2023-11-25T08:17:53.543Z,99464.19
2023-11-25T08:20:22.345Z,99469.50
2023-11-25T08:22:50.631Z,99473.80
2023-11-25T08:25:20.032Z,99478.09
2023-11-25T08:27:51.615Z,99477.38
2023-11-25T08:30:20.074Z,99473.77
2023-11-25T08:32:49.070Z,99478.94
2023-11-25T08:35:17.574Z,99481.87
2023-11-25T08:37:46.903Z,99482.91
2023-11-25T08:40:18.673Z,99483.79
2023-11-25T08:42:47.478Z,99482.91
2023-11-25T08:45:15.938Z,99483.95
2023-11-25T08:47:44.424Z,99484.66
2023-11-25T08:50:17.508Z,99479.34
2023-11-25T08:52:49.899Z,99483.81
2023-11-25T08:55:21.366Z,99491.73
2023-11-25T08:57:52.605Z,99502.73
2023-11-25T09:00:22.173Z,99504.98
2023-11-25T09:02:53.335Z,99503.08
2023-11-25T09:05:24.251Z,99502.57
2023-11-25T09:26:31.218Z,99472.64
2023-11-25T09:28:59.474Z,99466.27
2023-11-25T09:31:28.299Z,99463.35
2023-11-25T09:33:58.192Z,99454.58
2023-11-25T09:36:26.582Z,99446.98
2023-11-25T09:38:54.714Z,99435.96
2023-11-25T09:41:24.045Z,99431.66
2023-11-25T09:43:52.546Z,99430.96
2023-11-25T09:46:21.490Z,99433.36
2023-11-25T09:48:49.976Z,99439.04
2023-11-25T09:51:25.446Z,99432.48
2023-11-25T09:53:57.944Z,99427.85
2023-11-25T09:56:26.594Z,99424.56
2023-11-25T09:58:54.930Z,99419.39
2023-11-25T10:01:27.307Z,99418.69
2023-11-25T10:03:57.724Z,99415.40
2023-11-25T10:06:26.912Z,99415.58
2023-11-25T10:08:55.164Z,99416.93
2023-11-25T10:11:24.344Z,99421.23
2023-11-25T10:13:52.999Z,99421.73
2023-11-25T10:16:30.651Z,99420.52
2023-11-25T10:18:59.003Z,99424.84
2023-11-25T10:21:27.228Z,99434.64
2023-11-25T10:23:55.726Z,99438.08
2023-11-25T10:26:24.959Z,99438.77
2023-11-25T10:28:53.181Z,99437.23
2023-11-25T10:31:21.453Z,99441.54
2023-11-25T10:33:56.570Z,99437.56
2023-11-25T10:36:24.733Z,99434.81
2023-11-25T10:38:54.916Z,99430.68
2023-11-25T10:41:24.191Z,99423.95
2023-11-25T10:43:54.120Z,99419.48
2023-11-25T10:46:38.798Z,99412.23
2023-11-25T10:49:09.726Z,99401.88
2023-11-25T10:51:41.408Z,99395.48
2023-11-25T10:54:12.515Z,99396.82
2023-11-25T10:56:42.127Z,99392.34
2023-11-25T10:59:14.312Z,99385.79
2023-11-25T11:01:45.704Z,99376.98
2023-11-25T11:04:33.915Z,99378.04
2023-11-25T11:07:08.002Z,99381.83
2023-11-25T11:09:36.812Z,99382.86
2023-11-25T11:12:17.829Z,99384.58
2023-11-25T11:14:59.579Z,99386.12
2023-11-25T11:17:47.682Z,99380.77
2023-11-25T11:20:19.725Z,99373.33
2023-11-25T11:22:48.258Z,99374.33
2023-11-25T11:25:45.766Z,99377.07
2023-11-25T11:28:26.234Z,99375.52
2023-11-25T11:31:32.347Z,99369.80
2023-11-25T11:34:02.291Z,99362.88
2023-11-25T11:36:31.980Z,99365.09
2023-11-25T11:39:00.545Z,99362.17
2023-11-25T11:41:30.811Z,99358.86
2023-11-25T11:44:11.231Z,99354.38
2023-11-25T11:46:43.157Z,99354.19
2023-11-25T11:49:17.520Z,99350.89
2023-11-25T11:52:03.157Z,99347.22
2023-11-25T11:54:31.609Z,99347.52
2023-11-25T11:57:05.051Z,99348.39
2023-11-25T12:00:07.536Z,99348.00
2023-11-25T12:02:39.147Z,99349.34
2023-11-25T12:05:09.156Z,99347.61
2023-11-25T12:07:37.561Z,99343.98
2023-11-25T12:10:07.159Z,99342.42
2023-11-25T12:12:43.107Z,99339.29
2023-11-25T12:15:11.856Z,99335.99
2023-11-25T12:17:42.147Z,99338.55
2023-11-25T12:20:12.128Z,99338.31
2023-11-25T12:22:42.046Z,99340.02
2023-11-25T12:25:15.246Z,99340.14
2023-11-25T12:28:07.792Z,99334.44
2023-11-25T12:30:41.256Z,99332.48
2023-11-25T12:33:11.863Z,99332.85
2023-11-25T12:35:46.403Z,99332.01
2023-11-25T12:38:17.909Z,99329.59
2023-11-25T12:40:47.802Z,99331.89
2023-11-25T12:43:17.410Z,99328.02
2023-11-25T12:45:48.236Z,99325.67
2023-11-25T12:48:30.850Z,99324.64
2023-11-25T12:51:11.811Z,99329.19
2023-11-25T12:53:55.066Z,99333.33
2023-11-25T12:56:23.858Z,99333.98
2023-11-25T12:58:52.145Z,99329.51
2023-11-25T13:01:25.102Z,99326.74
2023-11-25T13:03:54.163Z,99327.61
2023-11-25T13:06:22.753Z,99327.67
2023-11-25T13:08:52.214Z,99338.22
2023-11-25T13:11:20.690Z,99337.14
2023-11-25T13:13:49.214Z,99348.48
2023-11-25T13:16:17.525Z,99354.52
2023-11-25T13:18:49.662Z,99356.98
2023-11-25T13:21:19.927Z,99359.48
2023-11-25T13:23:48.351Z,99364.73
2023-11-25T13:26:16.992Z,99364.42
2023-11-25T13:28:45.373Z,99363.06
2023-11-25T13:31:13.793Z,99360.50
2023-11-25T13:33:42.275Z,99363.30
2023-11-25T13:36:10.704Z,99368.65
2023-11-25T13:38:39.875Z,99361.58
2023-11-25T13:41:09.286Z,99357.29
2023-11-25T13:43:37.818Z,99350.08
2023-11-25T13:46:06.378Z,99346.15
2023-11-25T13:48:37.965Z,99349.64
2023-11-25T13:54:40.678Z,99353.48
2023-11-25T13:57:09.077Z,99359.36
2023-11-25T13:59:37.858Z,99363.90
2023-11-25T14:02:09.184Z,99369.27
2023-11-25T14:04:41.350Z,99373.64
2023-11-25T14:07:10.749Z,99370.75
2023-11-25T14:09:41.026Z,99363.73
2023-11-25T14:12:09.574Z,99363.23
2023-11-25T14:14:37.983Z,99366.33
2023-11-25T14:17:11.562Z,99362.89
2023-11-25T14:19:41.464Z,99362.75
2023-11-25T14:22:10.790Z,99364.14
2023-11-25T14:24:39.468Z,99367.42
2023-11-25T14:27:07.985Z,99372.42
2023-11-25T14:29:36.556Z,99374.67
2023-11-25T14:32:05.995Z,99376.91
2023-11-25T14:34:34.668Z,99374.84
2023-11-25T14:37:03.178Z,99377.95
2023-11-25T14:39:42.254Z,99378.30
2023-11-25T14:42:16.196Z,99377.96
2023-11-25T14:44:45.959Z,99380.20
2023-11-25T14:47:14.831Z,99378.15
2023-11-25T14:49:43.533Z,99371.08
2023-11-25T14:52:12.135Z,99381.07
2023-11-25T14:54:42.262Z,99386.57
2023-11-25T14:57:14.634Z,99389.51
2023-11-25T14:59:44.237Z,99382.62
2023-11-25T15:02:15.704Z,99378.33
2023-11-25T15:04:52.343Z,99372.48
2023-11-25T15:07:22.270Z,99373.16
2023-11-25T15:09:50.983Z,99375.05
2023-11-25T15:16:20.129Z,99371.25
2023-11-25T15:18:48.586Z,99378.15
2023-11-25T15:21:19.556Z,99384.35
2023-11-25T15:23:48.349Z,99389.85
2023-11-25T15:26:17.028Z,99391.05
2023-11-25T15:28:51.552Z,99391.23
2023-11-25T15:31:21.279Z,99391.39
2023-11-25T15:33:50.600Z,99396.91
2023-11-25T15:36:19.807Z,99397.25
2023-11-25T15:38:48.579Z,99394.67
2023-11-25T15:41:17.028Z,99385.36
2023-11-25T15:43:45.762Z,99377.46
2023-11-25T15:46:14.362Z,99371.95
2023-11-25T15:48:42.787Z,99378.66
2023-11-25T15:51:11.644Z,99387.43
2023-11-25T15:53:39.951Z,99386.93
2023-11-25T15:56:08.871Z,99382.45
2023-11-25T15:58:37.386Z,99393.83
2023-11-25T16:01:06.109Z,99406.04
2023-11-25T16:03:34.438Z,99417.23
2023-11-25T16:06:06.178Z,99409.98
2023-11-25T16:08:34.461Z,99407.41
2023-11-25T16:11:02.766Z,99412.58
2023-11-25T16:13:33.138Z,99418.08
2023-11-25T16:16:01.924Z,99421.35
2023-11-25T16:18:31.971Z,99424.78
2023-11-25T16:21:01.037Z,99428.06
2023-11-25T16:23:29.713Z,99425.47
2023-11-25T16:25:59.924Z,99415.33
2023-11-25T16:28:28.447Z,99415.16
2023-11-25T16:30:56.736Z,99403.97
2023-11-25T16:33:25.933Z,99397.08
2023-11-25T16:35:54.375Z,99390.88
2023-11-25T16:38:26.665Z,99387.44
2023-11-25T16:40:56.467Z,99383.80
2023-11-25T16:43:26.625Z,99381.40
2023-11-25T16:45:58.025Z,99384.34
2023-11-25T16:48:34.968Z,99387.77
2023-11-25T16:51:11.859Z,99389.48
2023-11-25T16:53:42.322Z,99397.07
2023-11-25T16:56:10.855Z,99402.23
2023-11-25T16:58:39.341Z,99402.23
2023-11-25T17:01:07.765Z,99408.08
2023-11-25T17:03:36.496Z,99409.64
2023-11-25T17:06:07.119Z,99405.48
2023-11-25T17:08:35.520Z,99406.69
2023-11-25T17:11:05.219Z,99413.23
2023-11-25T17:13:34.046Z,99423.05
2023-11-25T17:16:02.412Z,99420.30
2023-11-25T17:18:30.843Z,99422.89
2023-11-25T17:20:59.190Z,99426.66
2023-11-25T17:23:27.557Z,99428.38
2023-11-25T17:25:59.664Z,99423.73
2023-11-25T17:28:30.830Z,99419.44
2023-11-25T17:31:00.226Z,99414.97
2023-11-25T17:33:28.670Z,99414.80
2023-11-25T17:35:57.147Z,99421.52
2023-11-25T17:38:25.409Z,99428.58
2023-11-25T17:40:54.320Z,99427.54
2023-11-25T17:43:22.622Z,99431.67
2023-11-25T17:45:51.168Z,99435.46
2023-11-25T17:48:19.694Z,99434.27
2023-11-25T17:50:48.052Z,99431.02
2023-11-25T17:53:16.372Z,99434.09
2023-11-25T17:55:44.914Z,99435.82
2023-11-25T17:58:13.318Z,99441.84
2023-11-25T18:00:44.727Z,99440.11
2023-11-25T18:03:13.490Z,99443.58
2023-11-25T18:05:41.940Z,99446.14
2023-11-25T18:08:10.426Z,99447.02
2023-11-25T18:10:38.905Z,99441.33
2023-11-25T18:13:07.364Z,99432.21
2023-11-25T18:15:35.651Z,99442.00
2023-11-25T18:18:04.789Z,99441.66
2023-11-25T18:20:33.092Z,99437.37
2023-11-25T18:23:01.497Z,99439.60
2023-11-25T18:25:30.362Z,99440.81
2023-11-25T18:27:58.903Z,99438.75
2023-11-25T18:30:27.475Z,99433.23
2023-11-25T18:32:55.956Z,99424.29
2023-11-25T18:35:27.646Z,99418.79
2023-11-25T18:37:56.187Z,99420.50
2023-11-25T18:40:24.805Z,99423.42
2023-11-25T18:42:55.498Z,99418.96
2023-11-25T18:45:26.029Z,99417.58
2023-11-25T18:47:54.830Z,99413.63
2023-11-25T18:50:28.953Z,99412.59
2023-11-25T18:52:58.173Z,99414.99
2023-11-25T18:55:26.823Z,99416.20
2023-11-25T18:57:58.194Z,99414.64
2023-11-25T19:00:26.610Z,99407.93
2023-11-25T19:02:57.847Z,99396.06
2023-11-25T19:05:26.422Z,99387.30
2023-11-25T19:07:55.173Z,99380.94
2023-11-25T19:10:26.351Z,99379.90
2023-11-25T19:12:54.861Z,99375.94
2023-11-25T19:15:23.499Z,99369.92
2023-11-25T19:17:53.276Z,99368.38
2023-11-25T19:20:24.924Z,99369.23
2023-11-25T19:22:54.039Z,99369.23
2023-11-25T19:25:24.271Z,99365.45
2023-11-25T19:27:52.831Z,99368.70
2023-11-25T19:30:21.501Z,99368.02
2023-11-25T19:32:50.231Z,99360.98
2023-11-25T19:35:18.688Z,99359.25
2023-11-25T19:37:49.597Z,99355.80
2023-11-25T19:40:20.199Z,99352.73
2023-11-25T19:42:48.910Z,99352.02
2023-11-25T19:45:20.135Z,99351.00
2023-11-25T19:47:51.141Z,99347.04
2023-11-25T19:50:19.693Z,99339.12
2023-11-25T19:52:50.268Z,99338.28
2023-11-25T19:55:18.802Z,99337.23
2023-11-25T19:57:47.166Z,99332.43
2023-11-25T20:00:17.311Z,99334.84
2023-11-25T20:02:46.583Z,99340.33
2023-11-25T20:05:16.843Z,99352.52
2023-11-25T20:07:47.204Z,99356.82
2023-11-25T20:10:16.335Z,99357.51
2023-11-25T20:12:45.058Z,99355.27
2023-11-25T20:15:16.738Z,99350.45
2023-11-25T20:17:48.325Z,99352.85
2023-11-25T20:20:19.169Z,99358.52
2023-11-25T20:22:48.181Z,99361.27
2023-11-25T20:25:16.837Z,99358.17
2023-11-25T20:27:46.456Z,99359.02
2023-11-25T20:30:15.336Z,99364.02
2023-11-25T20:32:44.951Z,99362.46
2023-11-25T20:35:13.561Z,99355.59
2023-11-25T20:37:42.311Z,99354.70
2023-11-25T20:40:11.494Z,99357.45
2023-11-25T20:42:42.616Z,99355.56
2023-11-25T20:45:12.696Z,99355.91
2023-11-25T20:47:43.985Z,99357.63
2023-11-25T20:50:12.688Z,99361.58
2023-11-25T20:52:41.147Z,99362.09
2023-11-25T20:55:11.414Z,99366.53
2023-11-25T20:57:41.381Z,99363.61
2023-11-25T21:00:11.673Z,99358.83
2023-11-25T21:02:40.574Z,99360.20
2023-11-25T21:26:44.688Z,99401.62
2023-11-25T21:29:13.029Z,99400.92
2023-11-25T21:31:41.382Z,99398.17
2023-11-25T21:34:10.005Z,99405.76
2023-11-25T21:36:41.986Z,99408.16
2023-11-25T21:39:12.114Z,99405.41
2023-11-25T21:41:40.752Z,99400.97
2023-11-25T21:44:09.412Z,99405.43
2023-11-25T21:46:37.966Z,99413.85
2023-11-25T21:49:06.510Z,99416.26
2023-11-25T21:51:34.846Z,99413.50
2023-11-25T21:54:03.369Z,99419.00
2023-11-25T21:56:31.996Z,99421.94
2023-11-25T21:59:00.506Z,99422.95
2023-11-25T22:01:29.355Z,99421.94
2023-11-25T22:03:59.350Z,99425.20
2023-11-25T22:06:29.046Z,99426.40
2023-11-25T22:08:59.198Z,99432.06
2023-11-25T22:11:28.160Z,99433.42
2023-11-25T22:14:00.298Z,99430.52
2023-11-25T22:16:28.801Z,99430.38
2023-11-25T22:18:57.177Z,99424.36
2023-11-25T22:21:25.590Z,99424.85
2023-11-25T22:23:55.802Z,99424.66
2023-11-25T22:26:34.442Z,99431.17
2023-11-25T22:29:05.291Z,99434.78
2023-11-25T22:31:34.096Z,99434.90
2023-11-25T22:34:02.576Z,99435.92
2023-11-25T22:36:32.573Z,99429.73
2023-11-25T22:39:01.050Z,99428.17
2023-11-25T22:41:29.440Z,99426.64
2023-11-25T22:43:58.334Z,99430.73
2023-11-25T22:46:27.541Z,99430.05
2023-11-25T22:48:56.137Z,99426.10
2023-11-25T22:51:25.330Z,99422.65
2023-11-25T22:53:54.694Z,99420.92
2023-11-25T22:56:23.053Z,99412.84
2023-11-25T22:58:51.445Z,99413.02
2023-11-25T23:01:26.264Z,99413.52
2023-11-25T23:03:56.583Z,99406.29
2023-11-25T23:06:25.826Z,99402.71
2023-11-25T23:08:54.323Z,99396.19
2023-11-25T23:11:23.616Z,99391.75
2023-11-25T23:13:52.010Z,99397.59
2023-11-25T23:16:20.338Z,99405.64
2023-11-25T23:18:48.973Z,99401.69
2023-11-25T23:21:18.487Z,99403.75
2023-11-25T23:23:48.897Z,99400.86
2023-11-25T23:26:17.788Z,99398.80
2023-11-25T23:28:46.443Z,99388.84
2023-11-25T23:31:14.976Z,99383.02
2023-11-25T23:33:43.474Z,99381.66
2023-11-25T23:36:11.752Z,99374.44
2023-11-25T23:38:41.633Z,99373.05
2023-11-25T23:41:09.989Z,99373.43
2023-11-25T23:43:38.399Z,99364.00
2023-11-25T23:46:07.205Z,99358.67
2023-11-25T23:48:36.883Z,99345.14
2023-11-25T23:51:06.751Z,99339.11
2023-11-25T23:53:35.099Z,99337.56
2023-11-25T23:56:03.681Z,99342.05
2023-11-25T23:58:32.325Z,99342.04
